Malaysia Virtual Airlines Airport Information Service

Queen Alia International

ICAO: OJAI Country: Jordan
Latitude: 31.7226 Longitude: 35.9932
Latest Arrival : MH9463 (VTBS-OJAI) Latest Departure : MH9194 (OJAI-VTBS)


WX CaptureLIVE
Data provided by noaa.gov | Fetched at 06:16:25

METAR : OJAI 290600Z 01004KT 5000 HZ NSC 13/01 Q1024 NOSIG

TAF : OJAI 290500Z 2906/3012 25006KT 5000 HZ NSC BECMG 2906/2908 14008KT


Runway Data for OJAI
Data provided by openaviationdata.com

Runway ID Mag Var Hdg Length Elevation Surface ILS Freq ILS Id ILS Slope
08L 3 76° 11957 ft 2394 ft Asphalt 109.3 IQAN 3
08R 3 76° 11953 ft 2394 ft Concrete -- -- --
26L 3 256° 11953 ft 2394 ft Concrete 110.9 IQA 3
26R 3 256° 11957 ft 2394 ft Asphalt 111.1 IQAR 3

Queen Alia International, Jordan
Use only for reference purposes



Not for navigational purposes.